sensor_id;sensor_type;location;lat;lon;timestamp;P1;durP1;ratioP1;P2;durP2;ratioP2
20065;SDS011;10193;48.884;9.182;2023-06-14T00:01:12;2.70;;;2.50;;
20065;SDS011;10193;48.884;9.182;2023-06-14T00:03:39;2.90;;;2.70;;
20065;SDS011;10193;48.884;9.182;2023-06-14T00:06:06;2.70;;;2.50;;
20065;SDS011;10193;48.884;9.182;2023-06-14T00:08:33;2.67;;;2.47;;
20065;SDS011;10193;48.884;9.182;2023-06-14T00:11:01;2.90;;;2.70;;
20065;SDS011;10193;48.884;9.182;2023-06-14T00:13:27;2.78;;;2.58;;
20065;SDS011;10193;48.884;9.182;2023-06-14T00:15:54;2.88;;;2.67;;
20065;SDS011;10193;48.884;9.182;2023-06-14T00:18:21;3.55;;;2.40;;
20065;SDS011;10193;48.884;9.182;2023-06-14T00:20:49;4.68;;;2.60;;
20065;SDS011;10193;48.884;9.182;2023-06-14T00:23:15;2.95;;;2.65;;
20065;SDS011;10193;48.884;9.182;2023-06-14T00:25:42;3.33;;;2.40;;
20065;SDS011;10193;48.884;9.182;2023-06-14T00:28:10;3.00;;;2.55;;
20065;SDS011;10193;48.884;9.182;2023-06-14T00:30:37;4.22;;;2.90;;
20065;SDS011;10193;48.884;9.182;2023-06-14T00:33:03;2.80;;;2.60;;
20065;SDS011;10193;48.884;9.182;2023-06-14T00:35:30;2.70;;;2.50;;
20065;SDS011;10193;48.884;9.182;2023-06-14T00:37:57;2.78;;;2.58;;
20065;SDS011;10193;48.884;9.182;2023-06-14T00:40:24;3.13;;;2.50;;
20065;SDS011;10193;48.884;9.182;2023-06-14T00:42:51;2.55;;;2.35;;
20065;SDS011;10193;48.884;9.182;2023-06-14T00:45:19;2.83;;;2.63;;
20065;SDS011;10193;48.884;9.182;2023-06-14T00:47:46;2.83;;;2.63;;
20065;SDS011;10193;48.884;9.182;2023-06-14T00:50:13;2.85;;;2.50;;
20065;SDS011;10193;48.884;9.182;2023-06-14T00:52:40;2.92;;;2.72;;
20065;SDS011;10193;48.884;9.182;2023-06-14T00:55:07;2.60;;;2.40;;
20065;SDS011;10193;48.884;9.182;2023-06-14T00:57:35;2.60;;;2.40;;
20065;SDS011;10193;48.884;9.182;2023-06-14T01:00:02;2.72;;;2.53;;
20065;SDS011;10193;48.884;9.182;2023-06-14T01:02:35;3.47;;;2.70;;
20065;SDS011;10193;48.884;9.182;2023-06-14T01:05:02;3.22;;;2.75;;
20065;SDS011;10193;48.884;9.182;2023-06-14T01:07:33;3.58;;;2.90;;
20065;SDS011;10193;48.884;9.182;2023-06-14T01:10:12;2.95;;;2.70;;
20065;SDS011;10193;48.884;9.182;2023-06-14T01:12:48;2.67;;;2.47;;
20065;SDS011;10193;48.884;9.182;2023-06-14T01:15:20;3.00;;;2.70;;
20065;SDS011;10193;48.884;9.182;2023-06-14T01:17:49;2.55;;;2.20;;
20065;SDS011;10193;48.884;9.182;2023-06-14T01:20:19;2.50;;;2.40;;
20065;SDS011;10193;48.884;9.182;2023-06-14T01:22:51;2.90;;;2.63;;
20065;SDS011;10193;48.884;9.182;2023-06-14T01:25:19;3.15;;;2.95;;
20065;SDS011;10193;48.884;9.182;2023-06-14T01:27:48;2.47;;;2.30;;
20065;SDS011;10193;48.884;9.182;2023-06-14T01:30:15;2.90;;;2.70;;
20065;SDS011;10193;48.884;9.182;2023-06-14T01:32:43;3.05;;;2.65;;
20065;SDS011;10193;48.884;9.182;2023-06-14T01:35:10;2.80;;;2.42;;
20065;SDS011;10193;48.884;9.182;2023-06-14T01:37:37;2.60;;;2.40;;
20065;SDS011;10193;48.884;9.182;2023-06-14T01:40:07;2.83;;;2.63;;
20065;SDS011;10193;48.884;9.182;2023-06-14T01:42:35;3.35;;;2.50;;
20065;SDS011;10193;48.884;9.182;2023-06-14T01:45:04;2.72;;;2.53;;
20065;SDS011;10193;48.884;9.182;2023-06-14T01:47:32;2.42;;;2.30;;
20065;SDS011;10193;48.884;9.182;2023-06-14T01:49:59;3.28;;;2.40;;
20065;SDS011;10193;48.884;9.182;2023-06-14T01:52:27;2.70;;;2.50;;
20065;SDS011;10193;48.884;9.182;2023-06-14T01:54:54;2.80;;;2.60;;
20065;SDS011;10193;48.884;9.182;2023-06-14T01:57:22;2.70;;;2.50;;
20065;SDS011;10193;48.884;9.182;2023-06-14T01:59:50;2.78;;;2.58;;
20065;SDS011;10193;48.884;9.182;2023-06-14T02:02:17;3.00;;;2.72;;
20065;SDS011;10193;48.884;9.182;2023-06-14T02:04:43;3.03;;;2.70;;
20065;SDS011;10193;48.884;9.182;2023-06-14T02:07:14;3.10;;;2.90;;
20065;SDS011;10193;48.884;9.182;2023-06-14T02:09:40;2.90;;;2.60;;
20065;SDS011;10193;48.884;9.182;2023-06-14T02:12:07;2.92;;;2.65;;
20065;SDS011;10193;48.884;9.182;2023-06-14T02:14:37;3.17;;;2.88;;
20065;SDS011;10193;48.884;9.182;2023-06-14T02:17:04;3.25;;;2.95;;
20065;SDS011;10193;48.884;9.182;2023-06-14T02:19:31;3.33;;;3.10;;
20065;SDS011;10193;48.884;9.182;2023-06-14T02:21:58;2.95;;;2.75;;
20065;SDS011;10193;48.884;9.182;2023-06-14T02:24:24;3.10;;;2.90;;
20065;SDS011;10193;48.884;9.182;2023-06-14T02:26:51;2.90;;;2.70;;
20065;SDS011;10193;48.884;9.182;2023-06-14T02:29:18;2.97;;;2.78;;
20065;SDS011;10193;48.884;9.182;2023-06-14T02:31:46;3.20;;;3.00;;
20065;SDS011;10193;48.884;9.182;2023-06-14T02:34:13;2.90;;;2.70;;
20065;SDS011;10193;48.884;9.182;2023-06-14T02:36:41;2.90;;;2.70;;
20065;SDS011;10193;48.884;9.182;2023-06-14T02:39:10;2.60;;;2.40;;
20065;SDS011;10193;48.884;9.182;2023-06-14T02:41:37;3.00;;;2.80;;
20065;SDS011;10193;48.884;9.182;2023-06-14T02:44:04;3.20;;;2.90;;
20065;SDS011;10193;48.884;9.182;2023-06-14T02:46:31;2.90;;;2.70;;
20065;SDS011;10193;48.884;9.182;2023-06-14T02:48:59;3.58;;;2.72;;
20065;SDS011;10193;48.884;9.182;2023-06-14T02:51:26;3.30;;;2.65;;
20065;SDS011;10193;48.884;9.182;2023-06-14T02:53:52;2.90;;;2.70;;
20065;SDS011;10193;48.884;9.182;2023-06-14T02:56:19;2.80;;;2.60;;
20065;SDS011;10193;48.884;9.182;2023-06-14T02:58:47;3.22;;;3.00;;
20065;SDS011;10193;48.884;9.182;2023-06-14T03:01:14;3.17;;;2.88;;
20065;SDS011;10193;48.884;9.182;2023-06-14T03:03:41;2.97;;;2.75;;
20065;SDS011;10193;48.884;9.182;2023-06-14T03:06:09;2.85;;;2.60;;
20065;SDS011;10193;48.884;9.182;2023-06-14T03:08:38;3.05;;;2.85;;
20065;SDS011;10193;48.884;9.182;2023-06-14T03:11:04;3.10;;;2.90;;
20065;SDS011;10193;48.884;9.182;2023-06-14T03:13:31;3.15;;;2.85;;
20065;SDS011;10193;48.884;9.182;2023-06-14T03:15:58;3.35;;;2.72;;
20065;SDS011;10193;48.884;9.182;2023-06-14T03:18:27;2.97;;;2.78;;
20065;SDS011;10193;48.884;9.182;2023-06-14T03:20:54;3.95;;;2.70;;
20065;SDS011;10193;48.884;9.182;2023-06-14T03:23:23;2.97;;;2.78;;
20065;SDS011;10193;48.884;9.182;2023-06-14T03:25:50;3.42;;;3.13;;
20065;SDS011;10193;48.884;9.182;2023-06-14T03:28:17;3.20;;;2.90;;
20065;SDS011;10193;48.884;9.182;2023-06-14T03:30:43;2.75;;;2.55;;
20065;SDS011;10193;48.884;9.182;2023-06-14T03:33:10;2.92;;;2.72;;
20065;SDS011;10193;48.884;9.182;2023-06-14T03:35:37;2.90;;;2.67;;
20065;SDS011;10193;48.884;9.182;2023-06-14T03:38:03;3.03;;;2.83;;
20065;SDS011;10193;48.884;9.182;2023-06-14T03:40:31;3.17;;;2.88;;
20065;SDS011;10193;48.884;9.182;2023-06-14T03:42:58;3.10;;;2.80;;
20065;SDS011;10193;48.884;9.182;2023-06-14T03:45:25;3.78;;;2.85;;
20065;SDS011;10193;48.884;9.182;2023-06-14T03:47:52;3.45;;;3.15;;
20065;SDS011;10193;48.884;9.182;2023-06-14T03:50:19;2.95;;;2.65;;
20065;SDS011;10193;48.884;9.182;2023-06-14T03:52:47;4.88;;;2.97;;
20065;SDS011;10193;48.884;9.182;2023-06-14T03:55:15;3.08;;;2.88;;
20065;SDS011;10193;48.884;9.182;2023-06-14T03:57:43;4.90;;;2.97;;
20065;SDS011;10193;48.884;9.182;2023-06-14T04:00:10;3.05;;;2.78;;
20065;SDS011;10193;48.884;9.182;2023-06-14T04:02:37;3.13;;;2.80;;
20065;SDS011;10193;48.884;9.182;2023-06-14T04:05:05;3.05;;;2.85;;
20065;SDS011;10193;48.884;9.182;2023-06-14T04:07:33;2.90;;;2.70;;
20065;SDS011;10193;48.884;9.182;2023-06-14T04:10:05;3.58;;;2.70;;
20065;SDS011;10193;48.884;9.182;2023-06-14T04:12:32;3.00;;;2.72;;
20065;SDS011;10193;48.884;9.182;2023-06-14T04:15:00;3.10;;;2.90;;
20065;SDS011;10193;48.884;9.182;2023-06-14T04:17:27;3.08;;;2.88;;
20065;SDS011;10193;48.884;9.182;2023-06-14T04:19:54;3.08;;;2.88;;
20065;SDS011;10193;48.884;9.182;2023-06-14T04:22:23;3.40;;;2.92;;
20065;SDS011;10193;48.884;9.182;2023-06-14T04:24:53;3.03;;;2.75;;
20065;SDS011;10193;48.884;9.182;2023-06-14T04:27:21;3.70;;;2.92;;
20065;SDS011;10193;48.884;9.182;2023-06-14T04:29:50;4.03;;;2.90;;
20065;SDS011;10193;48.884;9.182;2023-06-14T04:32:22;3.75;;;3.13;;
20065;SDS011;10193;48.884;9.182;2023-06-14T04:34:51;3.50;;;3.20;;
20065;SDS011;10193;48.884;9.182;2023-06-14T04:37:18;3.40;;;2.95;;
20065;SDS011;10193;48.884;9.182;2023-06-14T04:39:46;3.00;;;2.75;;
20065;SDS011;10193;48.884;9.182;2023-06-14T04:42:13;3.20;;;2.70;;
20065;SDS011;10193;48.884;9.182;2023-06-14T04:44:41;3.10;;;2.90;;
20065;SDS011;10193;48.884;9.182;2023-06-14T04:47:08;4.50;;;3.20;;
20065;SDS011;10193;48.884;9.182;2023-06-14T04:49:37;3.35;;;3.10;;
20065;SDS011;10193;48.884;9.182;2023-06-14T04:52:05;3.60;;;3.28;;
20065;SDS011;10193;48.884;9.182;2023-06-14T04:54:32;3.08;;;2.88;;
20065;SDS011;10193;48.884;9.182;2023-06-14T04:57:02;2.88;;;2.67;;
20065;SDS011;10193;48.884;9.182;2023-06-14T04:59:29;2.90;;;2.70;;
20065;SDS011;10193;48.884;9.182;2023-06-14T05:01:58;4.32;;;3.20;;
20065;SDS011;10193;48.884;9.182;2023-06-14T05:04:25;3.38;;;2.78;;
20065;SDS011;10193;48.884;9.182;2023-06-14T05:06:54;3.65;;;3.03;;
20065;SDS011;10193;48.884;9.182;2023-06-14T05:09:21;3.25;;;2.95;;
20065;SDS011;10193;48.884;9.182;2023-06-14T05:11:48;3.13;;;2.90;;
20065;SDS011;10193;48.884;9.182;2023-06-14T05:14:15;3.20;;;2.97;;
20065;SDS011;10193;48.884;9.182;2023-06-14T05:16:42;3.00;;;2.65;;
20065;SDS011;10193;48.884;9.182;2023-06-14T05:19:09;3.30;;;3.00;;
20065;SDS011;10193;48.884;9.182;2023-06-14T05:21:36;3.13;;;2.80;;
20065;SDS011;10193;48.884;9.182;2023-06-14T05:24:04;3.70;;;2.67;;
20065;SDS011;10193;48.884;9.182;2023-06-14T05:26:31;3.30;;;3.00;;
20065;SDS011;10193;48.884;9.182;2023-06-14T05:28:58;3.10;;;2.80;;
20065;SDS011;10193;48.884;9.182;2023-06-14T05:31:26;3.40;;;3.10;;
20065;SDS011;10193;48.884;9.182;2023-06-14T05:33:53;2.95;;;2.75;;
20065;SDS011;10193;48.884;9.182;2023-06-14T05:36:20;3.72;;;2.80;;
20065;SDS011;10193;48.884;9.182;2023-06-14T05:38:47;3.10;;;2.80;;
20065;SDS011;10193;48.884;9.182;2023-06-14T05:41:15;3.10;;;2.80;;
20065;SDS011;10193;48.884;9.182;2023-06-14T05:43:42;4.43;;;2.80;;
20065;SDS011;10193;48.884;9.182;2023-06-14T05:46:08;3.10;;;2.90;;
20065;SDS011;10193;48.884;9.182;2023-06-14T05:48:35;2.97;;;2.78;;
20065;SDS011;10193;48.884;9.182;2023-06-14T05:51:02;3.42;;;3.05;;
20065;SDS011;10193;48.884;9.182;2023-06-14T05:53:29;2.97;;;2.67;;
20065;SDS011;10193;48.884;9.182;2023-06-14T05:55:55;3.08;;;2.88;;
20065;SDS011;10193;48.884;9.182;2023-06-14T05:58:23;2.90;;;2.70;;
20065;SDS011;10193;48.884;9.182;2023-06-14T06:00:50;3.05;;;2.80;;
20065;SDS011;10193;48.884;9.182;2023-06-14T06:03:18;3.17;;;2.97;;
20065;SDS011;10193;48.884;9.182;2023-06-14T06:05:46;2.95;;;2.75;;
20065;SDS011;10193;48.884;9.182;2023-06-14T06:08:12;2.92;;;2.72;;
20065;SDS011;10193;48.884;9.182;2023-06-14T06:10:39;5.45;;;3.03;;
20065;SDS011;10193;48.884;9.182;2023-06-14T06:13:06;2.95;;;2.70;;
20065;SDS011;10193;48.884;9.182;2023-06-14T06:15:34;3.50;;;3.20;;
20065;SDS011;10193;48.884;9.182;2023-06-14T06:18:01;3.50;;;3.20;;
20065;SDS011;10193;48.884;9.182;2023-06-14T06:20:28;3.13;;;2.83;;
20065;SDS011;10193;48.884;9.182;2023-06-14T06:22:56;3.17;;;2.97;;
20065;SDS011;10193;48.884;9.182;2023-06-14T06:25:23;3.22;;;2.90;;
20065;SDS011;10193;48.884;9.182;2023-06-14T06:27:50;3.60;;;3.30;;
20065;SDS011;10193;48.884;9.182;2023-06-14T06:30:17;4.10;;;3.20;;
20065;SDS011;10193;48.884;9.182;2023-06-14T06:32:45;3.40;;;3.10;;
20065;SDS011;10193;48.884;9.182;2023-06-14T06:35:12;3.53;;;3.22;;
20065;SDS011;10193;48.884;9.182;2023-06-14T06:37:39;3.47;;;3.05;;
20065;SDS011;10193;48.884;9.182;2023-06-14T06:40:07;3.47;;;2.90;;
20065;SDS011;10193;48.884;9.182;2023-06-14T06:42:35;3.28;;;3.08;;
20065;SDS011;10193;48.884;9.182;2023-06-14T06:45:02;3.95;;;2.78;;
20065;SDS011;10193;48.884;9.182;2023-06-14T06:47:29;3.00;;;2.78;;
20065;SDS011;10193;48.884;9.182;2023-06-14T06:49:57;3.60;;;2.92;;
20065;SDS011;10193;48.884;9.182;2023-06-14T06:52:24;3.20;;;2.90;;
20065;SDS011;10193;48.884;9.182;2023-06-14T06:54:51;3.67;;;3.20;;
20065;SDS011;10193;48.884;9.182;2023-06-14T06:57:20;3.85;;;3.35;;
20065;SDS011;10193;48.884;9.182;2023-06-14T06:59:47;4.38;;;3.22;;
20065;SDS011;10193;48.884;9.182;2023-06-14T07:02:14;3.88;;;3.20;;
20065;SDS011;10193;48.884;9.182;2023-06-14T07:04:41;4.97;;;3.28;;
20065;SDS011;10193;48.884;9.182;2023-06-14T07:07:09;3.00;;;2.80;;
20065;SDS011;10193;48.884;9.182;2023-06-14T07:09:35;3.00;;;2.80;;
20065;SDS011;10193;48.884;9.182;2023-06-14T07:12:02;3.53;;;2.88;;
20065;SDS011;10193;48.884;9.182;2023-06-14T07:14:29;4.28;;;3.00;;
20065;SDS011;10193;48.884;9.182;2023-06-14T07:16:56;3.85;;;2.80;;
20065;SDS011;10193;48.884;9.182;2023-06-14T07:19:23;2.80;;;2.60;;
20065;SDS011;10193;48.884;9.182;2023-06-14T07:21:50;6.05;;;2.90;;
20065;SDS011;10193;48.884;9.182;2023-06-14T07:24:18;3.50;;;2.80;;
20065;SDS011;10193;48.884;9.182;2023-06-14T07:26:46;3.20;;;2.92;;
20065;SDS011;10193;48.884;9.182;2023-06-14T07:29:13;3.15;;;2.95;;
20065;SDS011;10193;48.884;9.182;2023-06-14T07:31:41;3.40;;;2.88;;
20065;SDS011;10193;48.884;9.182;2023-06-14T07:34:08;2.80;;;2.60;;
20065;SDS011;10193;48.884;9.182;2023-06-14T07:36:34;3.35;;;3.08;;
20065;SDS011;10193;48.884;9.182;2023-06-14T07:39:01;3.05;;;2.65;;
20065;SDS011;10193;48.884;9.182;2023-06-14T07:41:32;3.10;;;2.80;;
20065;SDS011;10193;48.884;9.182;2023-06-14T07:43:58;3.40;;;3.10;;
20065;SDS011;10193;48.884;9.182;2023-06-14T07:46:25;3.22;;;2.65;;
20065;SDS011;10193;48.884;9.182;2023-06-14T07:48:52;2.63;;;2.42;;
20065;SDS011;10193;48.884;9.182;2023-06-14T07:51:18;3.10;;;2.88;;
20065;SDS011;10193;48.884;9.182;2023-06-14T07:53:46;3.00;;;2.80;;
20065;SDS011;10193;48.884;9.182;2023-06-14T07:56:13;3.00;;;2.80;;
20065;SDS011;10193;48.884;9.182;2023-06-14T07:58:41;2.75;;;2.58;;
20065;SDS011;10193;48.884;9.182;2023-06-14T08:01:08;3.10;;;2.90;;
20065;SDS011;10193;48.884;9.182;2023-06-14T08:03:36;3.50;;;3.20;;
20065;SDS011;10193;48.884;9.182;2023-06-14T08:06:03;3.10;;;2.90;;
20065;SDS011;10193;48.884;9.182;2023-06-14T08:08:30;3.40;;;2.75;;
20065;SDS011;10193;48.884;9.182;2023-06-14T08:10:56;3.00;;;2.80;;
20065;SDS011;10193;48.884;9.182;2023-06-14T08:13:23;3.03;;;2.83;;
20065;SDS011;10193;48.884;9.182;2023-06-14T08:15:51;3.55;;;3.00;;
20065;SDS011;10193;48.884;9.182;2023-06-14T08:18:18;3.92;;;3.53;;
20065;SDS011;10193;48.884;9.182;2023-06-14T08:20:44;3.00;;;2.80;;
20065;SDS011;10193;48.884;9.182;2023-06-14T08:23:11;3.30;;;3.00;;
20065;SDS011;10193;48.884;9.182;2023-06-14T08:25:38;3.22;;;2.92;;
20065;SDS011;10193;48.884;9.182;2023-06-14T08:28:04;4.43;;;3.10;;
20065;SDS011;10193;48.884;9.182;2023-06-14T08:30:31;3.40;;;3.20;;
20065;SDS011;10193;48.884;9.182;2023-06-14T08:32:59;3.40;;;3.15;;
20065;SDS011;10193;48.884;9.182;2023-06-14T08:35:26;3.72;;;3.10;;
20065;SDS011;10193;48.884;9.182;2023-06-14T08:37:52;3.38;;;3.05;;
20065;SDS011;10193;48.884;9.182;2023-06-14T08:40:19;2.97;;;2.78;;
20065;SDS011;10193;48.884;9.182;2023-06-14T08:42:48;3.30;;;3.00;;
20065;SDS011;10193;48.884;9.182;2023-06-14T08:45:17;3.33;;;3.03;;
20065;SDS011;10193;48.884;9.182;2023-06-14T08:47:44;3.50;;;2.90;;
20065;SDS011;10193;48.884;9.182;2023-06-14T08:50:12;3.40;;;3.20;;
20065;SDS011;10193;48.884;9.182;2023-06-14T08:52:41;4.65;;;3.03;;
20065;SDS011;10193;48.884;9.182;2023-06-14T08:55:15;3.00;;;2.80;;
20065;SDS011;10193;48.884;9.182;2023-06-14T08:57:45;3.20;;;3.00;;
20065;SDS011;10193;48.884;9.182;2023-06-14T09:00:13;3.10;;;2.80;;
20065;SDS011;10193;48.884;9.182;2023-06-14T09:02:41;3.53;;;3.20;;
20065;SDS011;10193;48.884;9.182;2023-06-14T09:05:09;3.30;;;3.00;;
20065;SDS011;10193;48.884;9.182;2023-06-14T09:07:39;3.10;;;2.90;;
20065;SDS011;10193;48.884;9.182;2023-06-14T09:10:07;3.08;;;2.85;;
20065;SDS011;10193;48.884;9.182;2023-06-14T09:12:35;4.15;;;3.00;;
20065;SDS011;10193;48.884;9.182;2023-06-14T09:15:02;2.95;;;2.75;;
20065;SDS011;10193;48.884;9.182;2023-06-14T09:17:32;3.65;;;2.95;;
20065;SDS011;10193;48.884;9.182;2023-06-14T09:19:59;3.38;;;3.17;;
20065;SDS011;10193;48.884;9.182;2023-06-14T09:22:26;3.10;;;2.85;;
20065;SDS011;10193;48.884;9.182;2023-06-14T09:24:57;3.42;;;3.08;;
20065;SDS011;10193;48.884;9.182;2023-06-14T09:27:25;3.35;;;3.15;;
20065;SDS011;10193;48.884;9.182;2023-06-14T09:29:52;3.15;;;2.80;;
20065;SDS011;10193;48.884;9.182;2023-06-14T09:32:19;2.90;;;2.70;;
20065;SDS011;10193;48.884;9.182;2023-06-14T09:34:46;3.13;;;2.92;;
20065;SDS011;10193;48.884;9.182;2023-06-14T09:37:17;3.03;;;2.70;;
20065;SDS011;10193;48.884;9.182;2023-06-14T09:39:53;3.17;;;2.90;;
20065;SDS011;10193;48.884;9.182;2023-06-14T09:42:21;2.88;;;2.67;;
20065;SDS011;10193;48.884;9.182;2023-06-14T09:44:50;3.22;;;3.00;;
20065;SDS011;10193;48.884;9.182;2023-06-14T09:47:18;3.03;;;2.72;;
20065;SDS011;10193;48.884;9.182;2023-06-14T09:49:45;2.90;;;2.70;;
20065;SDS011;10193;48.884;9.182;2023-06-14T09:52:14;3.03;;;2.80;;
20065;SDS011;10193;48.884;9.182;2023-06-14T09:54:42;2.90;;;2.70;;
20065;SDS011;10193;48.884;9.182;2023-06-14T09:57:11;3.30;;;3.00;;
20065;SDS011;10193;48.884;9.182;2023-06-14T09:59:41;3.30;;;2.97;;
20065;SDS011;10193;48.884;9.182;2023-06-14T10:02:10;3.30;;;3.00;;
20065;SDS011;10193;48.884;9.182;2023-06-14T10:04:40;3.05;;;2.85;;
20065;SDS011;10193;48.884;9.182;2023-06-14T10:07:12;2.97;;;2.78;;
20065;SDS011;10193;48.884;9.182;2023-06-14T10:09:41;2.88;;;2.67;;
20065;SDS011;10193;48.884;9.182;2023-06-14T10:12:13;2.70;;;2.50;;
20065;SDS011;10193;48.884;9.182;2023-06-14T10:14:47;2.85;;;2.65;;
20065;SDS011;10193;48.884;9.182;2023-06-14T10:17:17;2.70;;;2.42;;
20065;SDS011;10193;48.884;9.182;2023-06-14T10:19:50;3.17;;;2.88;;
20065;SDS011;10193;48.884;9.182;2023-06-14T10:22:23;2.90;;;2.67;;
20065;SDS011;10193;48.884;9.182;2023-06-14T10:24:56;3.45;;;2.75;;
20065;SDS011;10193;48.884;9.182;2023-06-14T10:27:23;3.10;;;2.63;;
20065;SDS011;10193;48.884;9.182;2023-06-14T10:30:05;2.85;;;2.40;;
20065;SDS011;10193;48.884;9.182;2023-06-14T10:32:33;2.63;;;2.42;;
20065;SDS011;10193;48.884;9.182;2023-06-14T10:35:00;2.95;;;2.70;;
20065;SDS011;10193;48.884;9.182;2023-06-14T10:37:30;4.00;;;2.63;;
20065;SDS011;10193;48.884;9.182;2023-06-14T10:39:57;2.78;;;2.58;;
20065;SDS011;10193;48.884;9.182;2023-06-14T10:42:27;3.20;;;2.53;;
20065;SDS011;10193;48.884;9.182;2023-06-14T10:44:57;2.83;;;2.63;;
20065;SDS011;10193;48.884;9.182;2023-06-14T10:47:27;2.60;;;2.40;;
20065;SDS011;10193;48.884;9.182;2023-06-14T10:49:55;2.85;;;2.53;;
20065;SDS011;10193;48.884;9.182;2023-06-14T10:52:25;2.92;;;2.58;;
20065;SDS011;10193;48.884;9.182;2023-06-14T10:54:58;3.17;;;2.85;;
20065;SDS011;10193;48.884;9.182;2023-06-14T10:57:27;2.70;;;2.50;;
20065;SDS011;10193;48.884;9.182;2023-06-14T10:59:54;3.20;;;2.63;;
20065;SDS011;10193;48.884;9.182;2023-06-14T11:05:30;2.90;;;2.70;;
20065;SDS011;10193;48.884;9.182;2023-06-14T11:08:15;2.83;;;2.63;;
20065;SDS011;10193;48.884;9.182;2023-06-14T11:11:06;2.60;;;2.47;;
20065;SDS011;10193;48.884;9.182;2023-06-14T11:13:34;2.55;;;2.45;;
20065;SDS011;10193;48.884;9.182;2023-06-14T11:16:02;2.63;;;2.42;;
20065;SDS011;10193;48.884;9.182;2023-06-14T11:18:36;2.60;;;2.40;;
20065;SDS011;10193;48.884;9.182;2023-06-14T11:21:04;2.58;;;2.35;;
20065;SDS011;10193;48.884;9.182;2023-06-14T11:23:31;2.35;;;2.15;;
20065;SDS011;10193;48.884;9.182;2023-06-14T11:25:58;3.22;;;2.53;;
20065;SDS011;10193;48.884;9.182;2023-06-14T11:28:34;2.72;;;2.58;;
20065;SDS011;10193;48.884;9.182;2023-06-14T11:31:02;2.72;;;2.33;;
20065;SDS011;10193;48.884;9.182;2023-06-14T11:33:30;2.92;;;2.60;;
20065;SDS011;10193;48.884;9.182;2023-06-14T11:35:56;2.70;;;2.50;;
20065;SDS011;10193;48.884;9.182;2023-06-14T11:38:25;4.53;;;2.33;;
20065;SDS011;10193;48.884;9.182;2023-06-14T11:40:52;2.53;;;2.33;;
20065;SDS011;10193;48.884;9.182;2023-06-14T11:43:19;2.58;;;2.38;;
20065;SDS011;10193;48.884;9.182;2023-06-14T11:45:47;2.80;;;2.60;;
20065;SDS011;10193;48.884;9.182;2023-06-14T11:48:15;2.60;;;2.40;;
20065;SDS011;10193;48.884;9.182;2023-06-14T11:50:41;2.53;;;2.28;;
20065;SDS011;10193;48.884;9.182;2023-06-14T11:53:08;2.90;;;2.70;;
20065;SDS011;10193;48.884;9.182;2023-06-14T11:55:37;2.80;;;2.60;;
20065;SDS011;10193;48.884;9.182;2023-06-14T11:58:05;2.63;;;2.42;;
20065;SDS011;10193;48.884;9.182;2023-06-14T12:00:32;2.60;;;2.40;;
20065;SDS011;10193;48.884;9.182;2023-06-14T12:03:01;2.60;;;2.40;;
20065;SDS011;10193;48.884;9.182;2023-06-14T12:05:28;3.83;;;2.40;;
20065;SDS011;10193;48.884;9.182;2023-06-14T12:07:58;3.50;;;2.55;;
20065;SDS011;10193;48.884;9.182;2023-06-14T12:10:26;2.35;;;2.15;;
20065;SDS011;10193;48.884;9.182;2023-06-14T12:12:57;2.85;;;2.63;;
20065;SDS011;10193;48.884;9.182;2023-06-14T12:15:27;2.63;;;2.42;;
20065;SDS011;10193;48.884;9.182;2023-06-14T12:17:54;2.60;;;2.40;;
20065;SDS011;10193;48.884;9.182;2023-06-14T12:20:21;2.60;;;2.40;;
20065;SDS011;10193;48.884;9.182;2023-06-14T12:22:50;2.65;;;2.45;;
20065;SDS011;10193;48.884;9.182;2023-06-14T12:25:25;2.92;;;2.72;;
20065;SDS011;10193;48.884;9.182;2023-06-14T12:27:53;2.47;;;2.28;;
20065;SDS011;10193;48.884;9.182;2023-06-14T12:30:22;2.97;;;2.78;;
20065;SDS011;10193;48.884;9.182;2023-06-14T12:32:49;2.83;;;2.63;;
20065;SDS011;10193;48.884;9.182;2023-06-14T12:35:16;3.13;;;2.70;;
20065;SDS011;10193;48.884;9.182;2023-06-14T12:37:43;4.22;;;2.85;;
20065;SDS011;10193;48.884;9.182;2023-06-14T12:40:11;3.10;;;2.40;;
20065;SDS011;10193;48.884;9.182;2023-06-14T12:42:38;2.97;;;2.30;;
20065;SDS011;10193;48.884;9.182;2023-06-14T12:45:06;2.53;;;2.33;;
20065;SDS011;10193;48.884;9.182;2023-06-14T12:47:34;2.65;;;2.55;;
20065;SDS011;10193;48.884;9.182;2023-06-14T12:50:01;2.90;;;2.58;;
20065;SDS011;10193;48.884;9.182;2023-06-14T12:52:28;2.50;;;2.40;;
20065;SDS011;10193;48.884;9.182;2023-06-14T12:54:55;2.47;;;2.38;;
20065;SDS011;10193;48.884;9.182;2023-06-14T12:57:22;2.70;;;2.50;;
20065;SDS011;10193;48.884;9.182;2023-06-14T12:59:49;2.85;;;2.65;;
20065;SDS011;10193;48.884;9.182;2023-06-14T13:02:16;2.92;;;2.58;;
20065;SDS011;10193;48.884;9.182;2023-06-14T13:04:45;3.25;;;2.60;;
20065;SDS011;10193;48.884;9.182;2023-06-14T13:07:12;2.80;;;2.60;;
20065;SDS011;10193;48.884;9.182;2023-06-14T13:09:40;3.58;;;2.45;;
20065;SDS011;10193;48.884;9.182;2023-06-14T13:12:07;2.83;;;2.63;;
20065;SDS011;10193;48.884;9.182;2023-06-14T13:14:35;2.63;;;2.42;;
20065;SDS011;10193;48.884;9.182;2023-06-14T13:17:02;2.50;;;2.30;;
20065;SDS011;10193;48.884;9.182;2023-06-14T13:19:30;2.47;;;2.38;;
20065;SDS011;10193;48.884;9.182;2023-06-14T13:21:58;2.80;;;2.60;;
20065;SDS011;10193;48.884;9.182;2023-06-14T13:24:25;2.72;;;2.53;;
20065;SDS011;10193;48.884;9.182;2023-06-14T13:26:51;2.53;;;2.35;;
20065;SDS011;10193;48.884;9.182;2023-06-14T13:29:18;2.35;;;2.25;;
20065;SDS011;10193;48.884;9.182;2023-06-14T13:31:45;2.53;;;2.42;;
20065;SDS011;10193;48.884;9.182;2023-06-14T13:34:11;2.55;;;2.35;;
20065;SDS011;10193;48.884;9.182;2023-06-14T13:36:38;2.72;;;2.50;;
20065;SDS011;10193;48.884;9.182;2023-06-14T13:39:06;2.88;;;2.67;;
20065;SDS011;10193;48.884;9.182;2023-06-14T13:41:33;2.78;;;2.58;;
20065;SDS011;10193;48.884;9.182;2023-06-14T13:44:00;2.80;;;2.60;;
20065;SDS011;10193;48.884;9.182;2023-06-14T13:46:29;2.95;;;2.75;;
20065;SDS011;10193;48.884;9.182;2023-06-14T13:48:56;2.83;;;2.63;;
20065;SDS011;10193;48.884;9.182;2023-06-14T13:51:23;2.80;;;2.60;;
20065;SDS011;10193;48.884;9.182;2023-06-14T13:53:52;6.50;;;2.80;;
20065;SDS011;10193;48.884;9.182;2023-06-14T13:56:21;3.00;;;2.70;;
20065;SDS011;10193;48.884;9.182;2023-06-14T13:58:49;2.65;;;2.45;;
20065;SDS011;10193;48.884;9.182;2023-06-14T14:01:16;2.60;;;2.40;;
20065;SDS011;10193;48.884;9.182;2023-06-14T14:03:44;2.53;;;2.33;;
20065;SDS011;10193;48.884;9.182;2023-06-14T14:06:11;3.17;;;2.50;;
20065;SDS011;10193;48.884;9.182;2023-06-14T14:08:38;2.58;;;2.33;;
20065;SDS011;10193;48.884;9.182;2023-06-14T14:11:05;2.83;;;2.63;;
20065;SDS011;10193;48.884;9.182;2023-06-14T14:13:33;2.60;;;2.40;;
20065;SDS011;10193;48.884;9.182;2023-06-14T14:16:01;2.75;;;2.50;;
20065;SDS011;10193;48.884;9.182;2023-06-14T14:18:28;3.13;;;2.67;;
20065;SDS011;10193;48.884;9.182;2023-06-14T14:20:55;2.60;;;2.40;;
20065;SDS011;10193;48.884;9.182;2023-06-14T14:23:22;2.67;;;2.47;;
20065;SDS011;10193;48.884;9.182;2023-06-14T14:25:49;2.70;;;2.50;;
20065;SDS011;10193;48.884;9.182;2023-06-14T14:28:15;2.90;;;2.70;;
20065;SDS011;10193;48.884;9.182;2023-06-14T14:30:45;2.72;;;2.53;;
20065;SDS011;10193;48.884;9.182;2023-06-14T14:33:12;2.78;;;2.28;;
20065;SDS011;10193;48.884;9.182;2023-06-14T14:35:41;4.57;;;2.50;;
20065;SDS011;10193;48.884;9.182;2023-06-14T14:38:08;2.80;;;2.60;;
20065;SDS011;10193;48.884;9.182;2023-06-14T14:40:35;2.70;;;2.50;;
20065;SDS011;10193;48.884;9.182;2023-06-14T14:43:01;2.53;;;2.42;;
20065;SDS011;10193;48.884;9.182;2023-06-14T14:45:28;2.75;;;2.55;;
20065;SDS011;10193;48.884;9.182;2023-06-14T14:47:56;2.55;;;2.35;;
20065;SDS011;10193;48.884;9.182;2023-06-14T14:50:24;2.55;;;2.35;;
20065;SDS011;10193;48.884;9.182;2023-06-14T14:52:51;2.65;;;2.50;;
20065;SDS011;10193;48.884;9.182;2023-06-14T14:55:18;2.95;;;2.40;;